createdAt,value
2018-11-13T00:00:38.376Z,11.67
2018-11-13T00:03:44.994Z,11.66
2018-11-13T00:04:48.200Z,11.64
2018-11-13T00:06:42.720Z,11.67
2018-11-13T00:07:41.876Z,11.70
2018-11-13T00:09:48.087Z,11.64
2018-11-13T00:10:36.979Z,11.63
2018-11-13T00:12:53.500Z,11.59
2018-11-13T00:15:36.292Z,11.60
2018-11-13T00:16:38.341Z,11.53
2018-11-13T00:18:29.699Z,11.64
2018-11-13T00:21:16.701Z,11.67
2018-11-13T00:22:13.578Z,11.59
2018-11-13T00:24:22.770Z,11.56
2018-11-13T00:25:23.306Z,11.59
2018-11-13T00:27:18.164Z,11.56
2018-11-13T00:30:06.173Z,11.51
2018-11-13T00:31:07.218Z,11.56
2018-11-13T00:33:12.409Z,11.49
2018-11-13T00:35:38.654Z,11.57
2018-11-13T00:36:36.564Z,11.62
2018-11-13T00:38:31.516Z,11.67
2018-11-13T00:41:24.299Z,11.59
2018-11-13T00:42:22.044Z,11.59
2018-11-13T00:44:30.427Z,11.59
2018-11-13T00:47:04.631Z,11.57
2018-11-13T00:48:17.622Z,11.59
2018-11-13T00:50:11.058Z,11.54
2018-11-13T00:51:10.264Z,11.60
2018-11-13T00:52:11.324Z,11.62
2018-11-13T00:53:11.862Z,11.60
2018-11-13T00:54:11.534Z,11.72
2018-11-13T00:55:23.828Z,11.57
2018-11-13T00:57:18.331Z,11.59
2018-11-13T00:58:29.684Z,11.56
2018-11-13T01:00:24.327Z,11.63
2018-11-13T01:01:34.922Z,11.64
2018-11-13T01:03:33.671Z,11.56
2018-11-13T01:04:45.752Z,11.60
2018-11-13T01:06:32.422Z,11.60
2018-11-13T01:07:32.042Z,11.59
2018-11-13T01:10:01.894Z,11.57
2018-11-13T01:11:03.570Z,11.48
2018-11-13T01:13:10.040Z,11.41
2018-11-13T01:14:08.922Z,11.44
2018-11-13T01:16:05.665Z,11.45
2018-11-13T01:17:17.065Z,11.45
2018-11-13T01:21:13.007Z,11.46
2018-11-13T01:22:12.200Z,11.39
2018-11-13T01:24:23.511Z,11.39
2018-11-13T01:25:24.948Z,11.39
2018-11-13T01:27:30.214Z,11.36
2018-11-13T01:28:17.790Z,11.31
2018-11-13T01:30:26.207Z,11.38
2018-11-13T01:31:40.353Z,11.39
2018-11-13T01:33:33.112Z,11.36
2018-11-13T01:34:42.275Z,11.30
2018-11-13T01:36:27.998Z,11.35
2018-11-13T01:37:29.388Z,11.28
2018-11-13T01:38:38.915Z,11.28
2018-11-13T01:40:48.793Z,11.30
2018-11-13T01:41:48.127Z,11.28
2018-11-13T01:43:54.512Z,11.33
2018-11-13T01:44:54.936Z,11.30
2018-11-13T01:46:38.946Z,11.38
2018-11-13T01:47:53.110Z,11.31
2018-11-13T01:49:57.560Z,11.35
2018-11-13T01:50:57.918Z,11.35
2018-11-13T01:53:07.460Z,11.30
2018-11-13T01:55:38.721Z,11.19
2018-11-13T01:56:38.231Z,11.23
2018-11-13T01:58:45.742Z,11.16
2018-11-13T02:00:03.267Z,11.13
2018-11-13T02:02:15.218Z,11.19
2018-11-13T02:03:04.582Z,11.23
2018-11-13T02:07:37.297Z,11.19
2018-11-13T02:08:37.245Z,11.11
2018-11-13T02:09:49.090Z,11.19
2018-11-13T02:11:56.437Z,11.21
2018-11-13T02:12:45.705Z,11.19
2018-11-13T02:18:33.928Z,11.21
2018-11-13T02:19:33.915Z,11.19
2018-11-13T02:20:46.026Z,11.17
2018-11-13T02:22:42.910Z,11.20
2018-11-13T02:25:16.830Z,11.23
2018-11-13T02:26:29.340Z,11.17
2018-11-13T02:28:24.647Z,11.19
2018-11-13T02:29:23.781Z,11.13
2018-11-13T02:31:32.015Z,11.11
2018-11-13T02:32:45.750Z,11.11
2018-11-13T02:34:49.276Z,11.09
2018-11-13T02:35:49.271Z,11.09
2018-11-13T02:37:45.676Z,11.11
2018-11-13T02:38:57.388Z,11.06
2018-11-13T02:40:53.898Z,11.20
2018-11-13T02:43:45.869Z,11.09
2018-11-13T02:44:46.201Z,11.05
2018-11-13T02:46:41.283Z,11.11
2018-11-13T02:47:44.105Z,11.08
2018-11-13T02:49:38.061Z,10.98
2018-11-13T02:50:49.756Z,10.95
2018-11-13T02:52:54.821Z,10.99
2018-11-13T02:53:43.242Z,10.95
2018-11-13T02:55:50.746Z,10.95
2018-11-13T02:57:10.986Z,11.01
2018-11-13T02:58:56.894Z,10.95
2018-11-13T03:00:01.246Z,11.02
2018-11-13T03:02:27.849Z,11.05
2018-11-13T03:03:30.669Z,10.95
2018-11-13T03:06:05.062Z,11.03
2018-11-13T03:09:08.333Z,11.02
2018-11-13T03:10:04.680Z,11.03
2018-11-13T03:12:35.402Z,11.02
2018-11-13T03:13:47.195Z,10.94
2018-11-13T03:15:53.748Z,10.95
2018-11-13T03:16:52.909Z,10.94
2018-11-13T03:18:49.938Z,10.99
2018-11-13T03:19:49.512Z,11.02
2018-11-13T03:24:26.628Z,10.87
2018-11-13T03:25:32.022Z,10.87
2018-11-13T03:27:36.949Z,10.94
2018-11-13T03:30:17.123Z,10.88
2018-11-13T03:33:02.049Z,10.84
2018-11-13T03:34:00.736Z,10.88
2018-11-13T03:35:57.734Z,10.78
2018-11-13T03:36:58.425Z,10.76
2018-11-13T03:39:04.480Z,10.76
2018-11-13T03:40:06.022Z,10.68
2018-11-13T03:42:12.156Z,10.72
2018-11-13T03:43:12.140Z,10.62
2018-11-13T03:44:12.454Z,10.69
2018-11-13T03:45:11.245Z,10.63
2018-11-13T03:46:22.995Z,10.66
2018-11-13T03:48:18.631Z,10.68
2018-11-13T03:49:36.042Z,10.62
2018-11-13T18:05:56.966Z,21.36
2018-11-13T18:06:57.022Z,21.40
2018-11-13T18:09:01.380Z,21.58
